x

Western Gulf Of Alaska - 175nm Se Of Kodiak, Ak (46001) Wave Buoy

6:50pm - Fri 24th Feb 2017 All times are AKST. -9 hours from GMT.

  • Sig Wave height 10.2ft
  • Peak Period 13s
  • Average Period 7s
  • Wind
    25mph, 29mph gusts
  • Sea Temp 41°f
  • Air Temp 40°f
  • Sea Pressure 1033.8mb
  • Western Gulf Of Alaska  - 175nm Se Of Kodiak, Ak
  • Western Gulf Of Alaska  - 175nm Se Of Kodiak, Ak

More Historic Weather Station data

Upgrade to MSW Pro to gain access to the past 30 days of data for over 8000 Wavebouys and Weather Stations around the globe.

Join Pro

Comparision Forecast

View Surf forecast
   
Fri 02/24 6:50pm 10ft 13s 7s 25 29 mph 1033.8mb 41f 40f
5:50pm 10ft 14s 6s 22 29 mph 1033.6mb 41f 40f
4:50pm 12ft 15s 7s 25 31 mph 1033.5mb 41f 40f
3:50pm 10ft 15s 7s 22 29 mph 1033.9mb 41f 40f
2:50pm 10ft 15s 7s 22 27 mph 1033.9mb 41f 39f
1:50pm 9.5ft 14s 7s 22 27 mph 1034.3mb 41f 39f
12:50pm 10ft 13s 7s 25 29 mph 1034.4mb 41f 39f
11:50am 9ft 15s 7s 22 27 mph 1034.6mb 41f 39f
10:50am 9.5ft 14s 7s 20 25 mph 1034.9mb 41f 39f
9:50am 8ft 15s 6s 20 25 mph 1034.8mb 41f 39f
8:50am 8.5ft 15s 6s 18 22 mph 1034.6mb 41f 40f
7:50am 9.5ft 14s 7s 20 25 mph 1034.7mb 41f 40f
6:50am 8.5ft 14s 7s 22 29 mph 1034.4mb 41f 39f
5:50am 8ft 13s 6s 25 29 mph 1034.5mb 41f 38f
4:50am 7ft 14s 6s 20 27 mph 1034.5mb 41f 37f
3:50am 7.5ft 14s 7s 20 22 mph 1034.5mb 41f 37f
2:50am 7.5ft 10s 6s 18 25 mph 1034.8mb 41f 37f
1:50am 7.5ft 11s 7s 18 20 mph 1034.8mb 41f 37f
12:50am 7ft 11s 6s 18 20 mph 1034.9mb 41f 37f
Thu 02/23 11:50pm 6.5ft 10s 6s 18 22 mph 1035mb 41f 37f
10:50pm 6.5ft 10s 6s 18 22 mph 1035.2mb 41f 38f
9:50pm 7ft 10s 7s 13 16 mph 1035.5mb 41f 38f
8:50pm 7ft 11s 7s 16 18 mph 1035.7mb 41f 40f
7:50pm 6ft 14s 7s 13 18 mph 1035.7mb 41f 40f
6:50pm 6.5ft 14s 7s 16 18 mph 1035.3mb 41f 40f
5:50pm 6.5ft 14s 7s 16 18 mph 1035.2mb 41f 40f
4:50pm 6.5ft 10s 7s 13 16 mph 1035.1mb 41f 40f
3:50pm 6.5ft 14s 7s 13 16 mph 1035.4mb 41f 40f
2:50pm 6ft 10s 7s 13 16 mph 1035.5mb 41f 40f
1:50pm 7ft 13s 7s 13 16 mph 1035.6mb 41f 40f
12:50pm 7ft 11s 7s 13 18 mph 1035.6mb 41f 40f
11:50am 7.5ft 14s 7s 11 16 mph 1035.5mb 41f 40f
10:50am 8ft 14s 8s 11 16 mph 1035mb 41f 40f
9:50am 8ft 13s 8s 11 16 mph 1034.9mb 41f 40f
8:50am 8ft 14s 7s 9 11 mph 1034.7mb 41f 41f
7:50am 8ft 15s 7s 9 11 mph 1034.5mb 41f 41f
6:50am 8.5ft 10s 7s 9 11 mph 1034.3mb 41f 41f
5:50am 7.5ft 11s 7s 7 11 mph 1034.2mb 41f 41f
4:50am 8ft 7s 7s 9 11 mph 1034mb 41f 40f
3:50am 9ft 15s 7s 9 11 mph 1034.2mb 41f 40f
2:50am 9ft 8s 7s 9 11 mph 1034.6mb 41f 40f
1:50am 9.5ft 8s 7s 9 11 mph 1034.7mb 41f 40f
12:50am 10.5ft 8s 7s 11 13 mph 1034.2mb 41f 40f
Wed 02/22 11:50pm 10.5ft 8s 7s 11 13 mph 1033.3mb 41f 40f
10:50pm 10.5ft 8s 7s 13 16 mph 1032.3mb 41f 40f
9:50pm 10.5ft 9s 7s 16 20 mph 1031.3mb 41f 40f
8:50pm 11.5ft 8s 7s 16 20 mph 1031mb 41f 40f
7:50pm 10.5ft 8s 7s 18 20 mph 1030.2mb 41f 40f
6:50pm 11.5ft 11s 7s 20 25 mph 1029.7mb 41f 40f
5:50pm 11.5ft 11s 7s 25 29 mph 1029.3mb 41f 40f
4:50pm 12ft 11s 7s 25 29 mph 1028.7mb 41f 40f
3:50pm 11.5ft 10s 7s 22 31 mph 1028.1mb 41f 40f
2:50pm 11ft 11s 7s 25 29 mph 1027.2mb 41f 40f
1:50pm 11.5ft 11s 7s 25 29 mph 1026.5mb 41f 40f
12:50pm 10.5ft 10s 6s 20 25 mph 1025.6mb 41f 40f
11:50am 11.5ft 11s 7s 22 27 mph 1024.7mb 41f 40f
10:50am 11.5ft 11s 7s 25 29 mph 1023.6mb 41f 40f
9:50am 13ft 11s 7s 25 31 mph 1022.1mb 41f 40f
8:50am 12ft 8s 6s 27 34 mph 1020.9mb 41f 41f
7:50am 12ft 9s 7s 27 34 mph 1020.4mb 41f 41f
6:50am 12ft 9s 7s 22 27 mph 1020.1mb 41f 40f
5:50am 10ft 8s 6s 27 34 mph 1020mb 41f 40f
4:50am 9.5ft 7s 6s 29 36 mph 1020.5mb 41f 39f
3:50am 9ft 7s 5s 29 36 mph 1020.7mb 41f 39f
1:50am 6ft 6s 5s 27 34 mph 1021.9mb 41f 39f
12:50am 6ft 6s 5s 25 29 mph 1022.6mb 41f 39f
Tue 02/21 11:50pm 5ft 5s 4s 25 29 mph 1023.1mb 41f 39f
10:50pm 5ft 4s 4s 22 27 mph 1023.1mb 41f 38f
9:50pm 4.5ft 6s 5s 20 25 mph 1023.4mb 41f 38f
8:50pm 5ft 6s 5s 18 20 mph 1023.3mb 41f 37f
7:50pm 5ft 7s 5s 16 20 mph 1023.7mb 41f 37f
6:50pm 5ft 7s 5s 13 18 mph 1023.7mb 41f 36f
5:50pm 5.5ft 7s 5s 16 18 mph 1023.5mb 41f 36f
4:50pm 6ft 8s 6s 13 16 mph 1023mb 41f 36f
3:50pm 6ft 7s 5s 13 16 mph 1022.5mb 41f 36f
2:50pm 6.5ft 8s 6s 16 20 mph 1022.1mb 41f 35f
1:50pm 7ft 9s 6s 18 20 mph 1021.6mb 41f 34f
12:50pm 7.5ft 7s 6s 16 22 mph 1021.1mb 41f 33f
11:50am 7.5ft 9s 6s 18 22 mph 1020.1mb 41f 33f
10:50am 8ft 8s 6s 20 25 mph 1019.2mb 41f 33f
9:50am 8ft 9s 6s 20 27 mph 1018.4mb 41f 33f
8:50am 8.5ft 8s 6s 20 27 mph 1017.9mb 41f 32f
7:50am 8ft 7s 6s 22 29 mph 1017.2mb 41f 32f
6:50am 7.5ft 8s 6s 20 25 mph 1016.7mb 41f 32f
5:50am 8ft 8s 6s 18 25 mph 1016.2mb 41f 32f
4:50am 8ft 9s 6s 18 25 mph 1015.9mb 41f 32f